Flight Information

DEPARTURE
LONG BEACH, CA
Elevation:
60
Runways:
H3 - 300x35 - ASPH-G
12/30 - 10000x200 - ASPH-G
H2 - 20x20 - ASPH-G
8L/26R - 6192x150 - ASPH-E
8R/26L - 3918x100 - ASPH-G
H1 - 20x20 - ASPH-G
H5 - 20x20 - ASPH-G
H4 - 20x20 - ASPH-G
Active PE Departure:
26L - 26R - 30
Current PE ATIS:
S
Altimeter:
30.00
Remarks:
ATIS:
127.75 562-595-8564
Clearance Delivery:
118.15
Ground:
133
Tower:
LONG BEACH TOWER 119.4
DESTINATION
,
Elevation:
TPA:
1000 (est.)


6784.4 NM73° True-14° Var59° HDG

Flight Plan:
(click to file on line)

1. Type
2. Aircraft Identification
3. Aircraft Type / Special Equipment
4. True Airspeed
kts
5. Departure Airport
(ICAO code)
6. Arriving Airport
(ICAO code)
7. Cruising Altitude
ft
8. Alternate Airport
(ICAO code)
9. Route of Flight
10. Remarks


00:00:00 Departure ATIS: Destination ATIS:

Clearance Limit:
Route:
Altitude: Expect in minutes
Frequency:
Transponder: (7500 Hijack / 7600 Lost Comms / 7700 Emergency)


KLGB 101553Z 00000KT 7SM SCT013 21/17 A3000 RMK AO2 SLP157 T02060167
Time: 2020-07-10T15:53:00Z
1594397262
Winds: calm
Visibility: 7.0 sm
Clouds (AGL): SCT 1300
Temperature: 20.6 C
Dew Point: 16.7 C
Pressure: 30.0 in Hgbr


Notes:

Data extracted from FAA Digital Chart Supplement. Effective: 0901Z Thursday, May 21, 2020 to 0901Z Thursday, Jul 16, 2020
Current ATIS data is provided courtisy of PilotEdge.